Euskara    
Meteorología y climatología de Navarra
Datos de la estación - Meteo Navarra

Estación de Sartaguda GN

Altitud 310 m.


Datos desde el 14/01/2021 hasta el 15/01/2021 en horario solar
Los datos son PROVISIONALES

Anterior Página 1 de 1 Siguiente Descargar: Formato para Excel 2000 o superior   Formato csv   Formato para OpenOffice Calc
Fecha Temperatura Humedad relativa Radiación global Insolación Precipitación Vel. viento 10 m Vel. viento 10 m Dir. viento 10 m
°C % W/m² s l/m² m/s km/h °
14/01/2021 0:00 1.6 85 0.0 0 0.0 3.0 10.9 335
14/01/2021 0:10 1.6 86 0.0 0 0.0 3.9 14.0 345
14/01/2021 0:20 1.5 86 0.0 0 0.0 2.3 8.2 350
14/01/2021 0:30 1.3 86 0.0 0 0.0 4.0 14.4 349
14/01/2021 0:40 1.3 87 0.0 0 0.0 4.8 17.1 354
14/01/2021 0:50 1.2 87 0.0 0 0.0 4.5 16.0 357
14/01/2021 1:00 1.1 87 0.0 0 0.0 3.1 11.3 357
14/01/2021 1:10 1.1 87 0.0 0 0.0 3.3 12.0 354
14/01/2021 1:20 0.9 87 0.0 0 0.0 3.5 12.5 354
14/01/2021 1:30 1.0 88 0.0 0 0.0 3.8 13.8 351
14/01/2021 1:40 1.0 87 0.0 0 0.0 3.5 12.6 344
14/01/2021 1:50 1.0 87 0.0 0 0.0 2.8 10.2 336
14/01/2021 2:00 0.7 87 0.0 0 0.0 2.5 9.0 327
14/01/2021 2:10 0.7 88 0.0 0 0.0 3.0 10.9 338
14/01/2021 2:20 0.7 87 0.0 0 0.0 3.2 11.6 344
14/01/2021 2:30 0.7 88 0.0 0 0.0 3.4 12.1 345
14/01/2021 2:40 0.6 87 0.0 0 0.0 3.0 10.8 338
14/01/2021 2:50 0.5 87 0.0 0 0.0 2.7 9.8 345
14/01/2021 3:00 0.5 88 0.0 0 0.0 4.4 15.7 353
14/01/2021 3:10 0.5 87 0.0 0 0.0 4.5 16.3 354
14/01/2021 3:20 0.5 87 0.0 0 0.0 3.7 13.2 357
14/01/2021 3:30 0.5 87 0.0 0 0.0 3.0 10.9 357
14/01/2021 3:40 0.3 87 0.0 0 0.0 3.7 13.4 357
14/01/2021 3:50 0.4 87 0.0 0 0.0 3.8 13.8 357
14/01/2021 4:00 0.4 87 0.0 0 0.0 4.0 14.4 358
14/01/2021 4:10 0.5 87 0.0 0 0.0 3.1 11.1 352
14/01/2021 4:20 0.4 87 0.0 0 0.0 3.7 13.2 355
14/01/2021 4:30 0.3 87 0.0 0 0.0 2.8 10.0 351
14/01/2021 4:40 0.4 87 0.0 0 0.0 2.4 8.6 351
14/01/2021 4:50 0.4 87 0.0 0 0.0 2.7 9.6 352
14/01/2021 5:00 0.4 87 0.0 0 0.0 2.2 7.9 348
14/01/2021 5:10 0.4 87 0.0 0 0.0 2.1 7.5 344
14/01/2021 5:20 0.4 87 0.0 0 0.0 2.1 7.4 344
14/01/2021 5:30 0.4 87 0.0 0 0.0 2.4 8.8 341
14/01/2021 5:40 0.4 87 0.0 0 0.0 2.6 9.4 346
14/01/2021 5:50 0.3 87 0.0 0 0.0 2.1 7.4 341
14/01/2021 6:00 0.4 87 0.0 0 0.0 2.5 8.9 322
14/01/2021 6:10 0.5 86 0.0 0 0.0 3.0 10.7 324
14/01/2021 6:20 0.6 86 0.0 0 0.0 1.9 6.7 10
14/01/2021 6:30 0.5 86 0.0 0 0.0 1.6 5.9 4
14/01/2021 6:40 0.5 86 0.0 0 0.0 1.9 6.7 340
14/01/2021 6:50 0.4 86 0.0 0 0.0 1.3 4.7 16
14/01/2021 7:00 0.2 86 0.0 0 0.0 2.1 7.4 354
14/01/2021 7:10 0.2 87 0.0 0 0.0 3.0 10.8 348
14/01/2021 7:20 0.2 87 0.0 0 0.0 3.5 12.6 343
14/01/2021 7:30 0.1 87 0.0 0 0.0 3.7 13.2 346
14/01/2021 7:40 0.1 87 0.0 0 0.0 3.5 12.6 348
14/01/2021 7:50 0.0 88 9.0 0 0.0 2.8 9.9 351
14/01/2021 8:00 0.0 87 29.6 300 0.0 2.3 8.1 3
14/01/2021 8:10 0.2 87 44.8 510 0.0 2.4 8.6 359
14/01/2021 8:20 0.4 86 65.2 560 0.0 2.6 9.4 352
14/01/2021 8:30 0.8 85 89.0 502 0.0 2.6 9.2 347
14/01/2021 8:40 1.1 84 118.9 600 0.0 2.4 8.7 344
14/01/2021 8:50 1.4 84 158.2 600 0.0 2.4 8.6 341
14/01/2021 9:00 1.7 83 184.8 600 0.0 2.6 9.5 338
14/01/2021 9:10 2.0 82 207.9 600 0.0 2.2 8.0 322
14/01/2021 9:20 2.4 81 225.4 600 0.0 2.5 8.9 320
14/01/2021 9:30 2.8 79 221.3 600 0.0 2.8 10.0 322
14/01/2021 9:40 3.1 79 204.9 488 0.0 2.5 9.1 319
14/01/2021 9:50 3.5 77 290.2 600 0.0 2.9 10.4 325
14/01/2021 10:00 3.8 76 320.0 600 0.0 3.2 11.7 311
14/01/2021 10:10 4.3 75 338.9 600 0.0 2.8 10.0 304
14/01/2021 10:20 4.8 74 357.1 600 0.0 2.9 10.4 307
14/01/2021 10:30 5.2 73 371.5 600 0.0 3.3 11.8 304
14/01/2021 10:40 5.7 72 389.4 600 0.0 3.7 13.2 299
14/01/2021 10:50 6.2 71 404.6 600 0.0 4.3 15.5 299
14/01/2021 11:00 6.8 69 419.0 600 0.0 5.3 18.9 287
14/01/2021 11:10 7.2 67 432.3 600 0.0 5.2 18.7 288
14/01/2021 11:20 7.6 65 445.1 600 0.0 5.7 20.5 286
14/01/2021 11:30 7.7 64 454.3 600 0.0 6.4 23.0 286
14/01/2021 11:40 8.0 64 461.4 600 0.0 5.1 18.5 290
14/01/2021 11:50 8.2 63 467.1 600 0.0 5.9 21.2 285
14/01/2021 12:00 8.4 63 472.5 600 0.0 5.8 20.7 286
14/01/2021 12:10 8.6 62 473.8 600 0.0 6.0 21.5 283
14/01/2021 12:20 8.7 62 475.5 600 0.0 5.2 18.6 285
14/01/2021 12:30 9.0 61 474.3 600 0.0 4.9 17.7 295
14/01/2021 12:40 9.1 60 473.4 600 0.0 5.3 19.2 287
14/01/2021 12:50 9.2 60 468.4 600 0.0 4.9 17.5 291
14/01/2021 13:00 9.4 61 462.7 600 0.0 4.9 17.6 287
14/01/2021 13:10 9.5 60 456.4 600 0.0 5.1 18.4 289
14/01/2021 13:20 9.7 61 447.2 600 0.0 3.3 11.8 297
14/01/2021 13:30 9.8 60 439.0 600 0.0 4.7 17.0 298
14/01/2021 13:40 9.9 61 426.3 600 0.0 4.5 16.1 304
14/01/2021 13:50 9.7 60 414.0 600 0.0 4.8 17.1 308
14/01/2021 14:00 9.7 60 396.5 600 0.0 6.0 21.5 314
14/01/2021 14:10 9.6 61 378.1 600 0.0 4.9 17.5 306
14/01/2021 14:20 9.7 60 363.7 600 0.0 5.1 18.3 293
14/01/2021 14:30 9.8 59 356.2 600 0.0 5.6 20.1 297
14/01/2021 14:40 9.7 58 251.0 388 0.0 5.9 21.2 284
14/01/2021 14:50 9.4 59 138.1 14 0.0 4.8 17.4 278
14/01/2021 15:00 9.0 61 94.8 0 0.0 5.7 20.3 281
14/01/2021 15:10 8.9 61 91.7 0 0.0 4.7 16.8 287
14/01/2021 15:20 8.9 61 103.2 6 0.0 4.3 15.4 297
14/01/2021 15:30 8.9 61 117.6 202 0.0 4.2 15.1 304
14/01/2021 15:40 8.9 61 191.8 574 0.0 4.4 15.9 311
14/01/2021 15:50 8.8 61 112.3 290 0.0 4.2 15.1 310
14/01/2021 16:00 8.4 62 137.4 600 0.0 4.6 16.4 312
14/01/2021 16:10 8.3 62 75.1 238 0.0 4.0 14.4 314
14/01/2021 16:20 8.0 64 40.1 0 0.0 4.0 14.3 323
14/01/2021 16:30 7.5 66 28.1 0 0.0 4.0 14.3 321
14/01/2021 16:40 7.5 67 21.1 0 0.0 3.7 13.3 318
14/01/2021 16:50 7.3 68 19.4 0 0.0 3.4 12.2 324
14/01/2021 17:00 7.3 70 1.1 0 0.0 3.3 11.9 323
14/01/2021 17:10 7.1 70 0.0 0 0.0 3.4 12.3 316
14/01/2021 17:20 6.9 71 0.0 0 0.0 3.2 11.3 317
14/01/2021 17:30 6.9 72 0.0 0 0.0 2.4 8.6 311
14/01/2021 17:40 6.9 72 0.0 0 0.0 4.0 14.5 292
14/01/2021 17:50 6.9 72 0.0 0 0.0 3.1 11.2 292
14/01/2021 18:00 6.8 73 0.0 0 0.0 3.5 12.6 291
14/01/2021 18:10 6.8 73 0.0 0 0.0 3.1 11.2 297
14/01/2021 18:20 6.7 74 0.0 0 0.0 2.8 9.9 302
14/01/2021 18:30 6.8 75 0.0 0 0.0 2.1 7.7 310
14/01/2021 18:40 6.8 75 0.0 0 0.0 1.4 5.1 332
14/01/2021 18:50 6.6 75 0.0 0 0.0 1.8 6.4 319
14/01/2021 19:00 6.5 76 0.0 0 0.0 2.3 8.4 318
14/01/2021 19:10 6.4 76 0.0 0 0.0 2.9 10.4 314
14/01/2021 19:20 6.5 76 0.0 0 0.0 3.7 13.3 312
14/01/2021 19:30 6.6 76 0.0 0 0.0 4.1 14.7 313
14/01/2021 19:40 6.6 76 0.0 0 0.0 3.4 12.3 318
14/01/2021 19:50 6.6 77 0.0 0 0.0 3.4 12.2 307
14/01/2021 20:00 6.5 77 0.0 0 0.0 2.2 8.0 314
14/01/2021 20:10 6.4 79 0.0 0 0.0 1.9 6.8 315
14/01/2021 20:20 6.7 79 0.0 0 0.0 2.7 9.5 308
14/01/2021 20:30 7.1 79 0.0 0 0.0 2.8 10.0 309
14/01/2021 20:40 7.2 79 0.0 0 0.0 2.9 10.5 304
14/01/2021 20:50 7.3 79 0.0 0 0.0 3.0 10.8 302
14/01/2021 21:00 7.8 79 0.0 0 0.0 2.9 10.3 299
14/01/2021 21:10 8.0 78 0.0 0 0.0 3.1 11.1 305
14/01/2021 21:20 7.8 78 0.0 0 0.0 3.2 11.4 311
14/01/2021 21:30 7.6 79 0.0 0 0.0 3.3 11.8 303
14/01/2021 21:40 7.5 80 0.0 0 0.0 3.5 12.6 300
14/01/2021 21:50 8.0 82 0.0 0 0.0 3.5 12.6 300
14/01/2021 22:00 8.0 81 0.0 0 0.0 3.5 12.5 301
14/01/2021 22:10 7.8 81 0.0 0 0.0 3.8 13.5 297
14/01/2021 22:20 7.8 80 0.0 0 0.0 3.4 12.2 297
14/01/2021 22:30 7.7 81 0.0 0 0.0 3.1 11.1 297
14/01/2021 22:40 7.6 81 0.0 0 0.0 3.0 10.9 291
14/01/2021 22:50 7.7 81 0.0 0 0.0 3.3 11.8 299
14/01/2021 23:00 7.9 80 0.0 0 0.0 3.1 11.3 300
14/01/2021 23:10 7.8 79 0.0 0 0.0 3.7 13.1 307
14/01/2021 23:20 8.1 78 0.0 0 0.0 3.7 13.3 299
14/01/2021 23:30 8.1 78 0.0 0 0.0 3.9 13.9 302
14/01/2021 23:40 8.1 77 0.0 0 0.0 3.9 14.1 304
14/01/2021 23:50 8.3 75 0.0 0 0.0 4.0 14.3 311
Anterior Página 1 de 1 Siguiente

NOTA: Tipo de datos según el color:
   - Valores diarios o 10 minutos correctos
   - Valores diarios calculados a partir de un número de datos 10 minutos menor que 144 y mayor que 120, o de un número de datos semihorarios menor que 48 y mayor que 40 (caso de las estaciones de INTIA Y Ministerio)
   - Valores diez minutos estimados


Contacto        Enlaces        Aviso legal